Time;durP1;ratioP1;P1;durP2;ratioP2;P2;SDS_P1;SDS_P2;PMS_P1;PMS_P2;Temp;Humidity;BMP_temperature;BMP_pressure;BME280_temperature;BME280_humidity;BME280_pressure;Samples;Min_cycle;Max_cycle;Signal;HPM_P1;HPM_P2
2021/08/10 00:00:55;;;;;;;3.03;0.95;;;;;;;15.88;100.00;100952.94;5035394;28;20034;-68
2021/08/10 00:03:21;;;;;;;1.25;0.70;;;;;;;15.82;100.00;100947.09;5039613;28;20079;-68
2021/08/10 00:05:48;;;;;;;2.75;0.73;;;;;;;15.84;100.00;100944.78;5021791;28;20056;-68
2021/08/10 00:08:19;;;;;;;2.38;0.98;;;;;;;15.84;100.00;100944.78;5030457;28;20068;-68
2021/08/10 00:10:47;;;;;;;2.90;1.60;;;;;;;15.88;100.00;100945.56;5031865;28;20041;-68
2021/08/10 00:13:18;;;;;;;1.58;0.73;;;;;;;15.87;100.00;100941.28;5033219;28;20383;-68
2021/08/10 00:15:43;;;;;;;2.53;1.00;;;;;;;15.88;100.00;100940.13;5038720;28;20055;-68
2021/08/10 00:18:09;;;;;;;2.10;0.95;;;;;;;15.92;100.00;100943.63;5043052;28;20034;-68
2021/08/10 00:20:35;;;;;;;1.23;0.90;;;;;;;15.85;100.00;100935.44;5041394;28;20041;-64
2021/08/10 00:23:02;;;;;;;1.42;0.93;;;;;;;15.74;100.00;100929.22;5017901;28;20517;-68
2021/08/10 00:25:28;;;;;;;1.98;0.70;;;;;;;15.97;100.00;100935.09;5025658;28;20025;-68
2021/08/10 00:27:54;;;;;;;0.90;0.60;;;;;;;16.11;100.00;100935.16;5003898;28;20029;-68
2021/08/10 00:30:19;;;;;;;1.38;0.88;;;;;;;16.03;100.00;100924.63;5026776;28;20037;-68
2021/08/10 00:32:46;;;;;;;1.95;1.10;;;;;;;16.05;100.00;100922.31;5011223;28;20136;-68
2021/08/10 00:35:12;;;;;;;2.25;0.85;;;;;;;16.00;100.00;100918.06;5027268;28;20037;-68
2021/08/10 00:37:38;;;;;;;2.00;0.88;;;;;;;15.85;100.00;100921.09;5021617;28;20030;-68
2021/08/10 00:40:04;;;;;;;1.38;0.90;;;;;;;15.83;100.00;100926.91;5024851;28;20033;-68
2021/08/10 00:42:30;;;;;;;1.52;0.68;;;;;;;15.72;100.00;100923.38;5001604;28;20458;-68
2021/08/10 00:44:56;;;;;;;1.10;1.00;;;;;;;15.58;100.00;100917.88;5020838;28;20026;-68
2021/08/10 00:47:22;;;;;;;1.23;0.80;;;;;;;15.73;100.00;100924.94;5000117;28;20029;-69
2021/08/10 00:49:48;;;;;;;1.15;0.77;;;;;;;15.79;100.00;100923.41;5008723;28;20029;-68
2021/08/10 00:52:15;;;;;;;1.58;0.85;;;;;;;15.96;100.00;100911.81;5038451;28;20095;-69
2021/08/10 00:54:41;;;;;;;1.63;1.10;;;;;;;15.69;100.00;100917.94;5035658;28;20032;-70
2021/08/10 00:57:09;;;;;;;1.40;1.02;;;;;;;15.61;100.00;100917.13;5007710;28;20029;-69
2021/08/10 00:59:38;;;;;;;1.55;0.73;;;;;;;15.65;100.00;100926.09;5017828;28;20044;-69
2021/08/10 01:02:06;;;;;;;0.95;0.75;;;;;;;15.55;100.00;100924.09;5014824;28;20492;-68
2021/08/10 01:04:34;;;;;;;2.13;0.95;;;;;;;15.64;100.00;100921.03;5010098;28;20045;-68
2021/08/10 01:07:14;;;;;;;0.88;0.80;;;;;;;15.65;100.00;100923.38;5016142;28;20029;-69
2021/08/10 01:09:57;;;;;;;1.38;0.77;;;;;;;15.76;100.00;100928.81;4988744;28;20037;-68
2021/08/10 01:12:32;;;;;;;0.90;0.68;;;;;;;15.74;100.00;100925.72;5027691;28;20056;-68
2021/08/10 01:15:09;;;;;;;1.23;0.70;;;;;;;15.96;100.00;100930.84;5037002;28;20036;-69
2021/08/10 01:17:53;;;;;;;1.30;0.65;;;;;;;15.75;100.00;100928.06;5020211;28;20083;-67
2021/08/10 01:20:40;;;;;;;1.00;0.65;;;;;;;15.71;100.00;100916.41;5035772;28;20028;-69
2021/08/10 01:23:09;;;;;;;1.42;0.88;;;;;;;15.79;100.00;100917.22;5012576;28;20029;-69
2021/08/10 01:25:56;;;;;;;1.10;0.82;;;;;;;15.85;100.00;100923.81;5017925;28;20026;-69
2021/08/10 01:28:41;;;;;;;1.38;0.90;;;;;;;15.77;100.00;100922.25;5022628;28;20037;-68
2021/08/10 01:31:07;;;;;;;1.02;0.77;;;;;;;15.70;100.00;100922.97;5044258;28;20030;-68
2021/08/10 01:33:39;;;;;;;1.70;0.70;;;;;;;15.86;100.00;100911.78;5009990;28;20160;-68
2021/08/10 01:36:07;;;;;;;0.80;0.60;;;;;;;15.76;100.00;100904.38;5025489;28;21567;-69
2021/08/10 01:38:37;;;;;;;1.02;0.70;;;;;;;15.85;100.00;100915.69;5018400;28;20089;-69
2021/08/10 01:41:03;;;;;;;1.17;0.60;;;;;;;15.98;100.00;100909.50;5053023;28;20033;-69
2021/08/10 01:43:33;;;;;;;1.33;0.70;;;;;;;15.83;100.00;100924.19;5026118;28;20528;-67
2021/08/10 01:45:59;;;;;;;0.85;0.63;;;;;;;15.82;100.00;100913.72;5038589;28;20026;-69
2021/08/10 01:48:27;;;;;;;0.55;0.50;;;;;;;15.65;100.00;100914.44;5023459;28;20128;-68
2021/08/10 01:50:54;;;;;;;0.73;0.47;;;;;;;15.61;100.00;100906.28;5033513;28;20085;-69
2021/08/10 01:53:25;;;;;;;0.68;0.55;;;;;;;15.44;100.00;100912.41;5024121;28;20537;-68
2021/08/10 01:55:56;;;;;;;1.55;0.65;;;;;;;15.40;100.00;100906.16;5018113;28;20034;-69
2021/08/10 01:58:30;;;;;;;1.65;0.63;;;;;;;15.31;100.00;100911.16;5011834;28;20037;-68
2021/08/10 02:00:57;;;;;;;0.63;0.63;;;;;;;15.25;100.00;100901.81;5035541;28;20091;-69
2021/08/10 02:03:26;;;;;;;1.38;0.60;;;;;;;15.12;100.00;100908.69;5025308;28;20112;-68
2021/08/10 02:06:14;;;;;;;1.10;0.60;;;;;;;15.07;100.00;100909.06;5010654;28;20029;-68
2021/08/10 02:08:42;;;;;;;1.13;0.73;;;;;;;15.25;100.00;100909.97;5034382;28;20044;-69
2021/08/10 02:11:10;;;;;;;1.55;0.80;;;;;;;15.22;100.00;100916.13;5028081;28;20117;-68
2021/08/10 02:13:36;;;;;;;1.15;0.70;;;;;;;15.09;100.00;100918.41;5019516;28;20036;-69
2021/08/10 02:16:08;;;;;;;1.25;0.63;;;;;;;15.09;100.00;100921.13;5036462;28;20051;-69
2021/08/10 02:18:35;;;;;;;1.10;0.80;;;;;;;15.00;100.00;100915.22;5034387;28;20422;-69
2021/08/10 02:21:09;;;;;;;1.45;0.80;;;;;;;14.93;100.00;100906.25;5037193;28;20052;-69
2021/08/10 02:23:37;;;;;;;1.27;0.82;;;;;;;14.97;100.00;100917.91;5033010;28;20510;-69
2021/08/10 02:26:05;;;;;;;1.23;0.50;;;;;;;15.12;100.00;100922.28;5019612;28;20033;-69
2021/08/10 02:28:33;;;;;;;0.90;0.60;;;;;;;14.89;100.00;100917.09;5014250;28;20043;-69
2021/08/10 02:31:02;;;;;;;1.85;0.90;;;;;;;14.78;100.00;100916.25;5008485;28;20088;-69
2021/08/10 02:33:38;;;;;;;0.57;0.55;;;;;;;14.93;100.00;100915.19;5012372;28;20038;-68
2021/08/10 02:36:06;;;;;;;1.42;0.73;;;;;;;14.92;100.00;100912.84;5034335;28;20076;-69
2021/08/10 02:38:36;;;;;;;0.80;0.63;;;;;;;14.96;100.00;100913.66;4988397;28;20061;-69
2021/08/10 02:41:03;;;;;;;1.60;0.65;;;;;;;14.95;100.00;100917.50;5000122;28;21323;-69
2021/08/10 02:43:34;;;;;;;0.70;0.60;;;;;;;14.98;100.00;100906.69;5022009;28;20080;-69
2021/08/10 02:46:03;;;;;;;0.52;0.50;;;;;;;14.86;100.00;100903.50;5027539;28;20124;-64
2021/08/10 02:48:31;;;;;;;1.00;0.70;;;;;;;14.92;100.00;100902.00;5014722;28;20566;-69
2021/08/10 02:50:57;;;;;;;1.38;0.85;;;;;;;15.05;100.00;100900.53;5039706;28;20029;-68
2021/08/10 02:53:24;;;;;;;1.00;0.68;;;;;;;15.15;100.00;100894.41;5020516;28;20061;-69
2021/08/10 02:56:09;;;;;;;1.13;0.57;;;;;;;15.06;100.00;100902.09;5009115;28;20041;-68
2021/08/10 02:58:44;;;;;;;0.77;0.55;;;;;;;14.87;100.00;100900.41;4986154;28;20026;-69
2021/08/10 03:01:14;;;;;;;0.85;0.60;;;;;;;14.84;100.00;100890.34;5028865;28;20092;-68
2021/08/10 03:03:43;;;;;;;1.05;0.55;;;;;;;14.93;100.00;100890.78;5014870;28;20030;-68
2021/08/10 03:06:10;;;;;;;1.00;0.68;;;;;;;14.96;100.00;100894.69;5022610;28;20854;-69
2021/08/10 03:08:46;;;;;;;0.70;0.50;;;;;;;15.04;100.00;100893.56;5024956;28;20037;-69
2021/08/10 03:11:12;;;;;;;0.98;0.75;;;;;;;14.98;100.00;100895.84;5023537;28;20033;-67
2021/08/10 03:13:42;;;;;;;1.33;0.65;;;;;;;15.07;100.00;100893.59;5027238;28;20033;-69
2021/08/10 03:16:09;;;;;;;1.23;0.73;;;;;;;14.92;100.00;100896.59;5042389;28;20045;-67
2021/08/10 03:18:39;;;;;;;1.10;0.68;;;;;;;15.19;100.00;100895.19;5029116;28;20025;-67
2021/08/10 03:21:07;;;;;;;0.80;0.60;;;;;;;15.09;100.00;100890.47;5036297;28;20029;-69
2021/08/10 03:23:38;;;;;;;0.75;0.55;;;;;;;15.20;100.00;100896.75;5016056;28;20485;-68
2021/08/10 03:26:06;;;;;;;1.42;0.70;;;;;;;14.98;100.00;100897.78;5034403;28;20029;-69
2021/08/10 03:28:39;;;;;;;1.67;0.88;;;;;;;14.70;100.00;100900.28;5027469;28;20030;-69
2021/08/10 03:31:05;;;;;;;0.80;0.60;;;;;;;14.82;100.00;100892.66;5027120;22;20130;-66
2021/08/10 03:33:31;;;;;;;1.27;0.63;;;;;;;14.92;100.00;100902.78;5017660;28;20299;-66
2021/08/10 03:36:00;;;;;;;1.13;0.63;;;;;;;15.12;100.00;100897.84;5013771;28;20026;-66
2021/08/10 03:38:29;;;;;;;0.80;0.73;;;;;;;15.00;100.00;100890.06;5003891;28;20029;-66
2021/08/10 03:40:55;;;;;;;3.15;1.60;;;;;;;15.10;100.00;100897.44;5006320;28;20120;-66
2021/08/10 03:43:21;;;;;;;0.75;0.63;;;;;;;15.08;100.00;100892.41;5011852;28;20033;-66
2021/08/10 03:45:52;;;;;;;1.23;0.60;;;;;;;15.11;100.00;100890.88;5011592;28;20032;-66
2021/08/10 03:48:20;;;;;;;1.00;0.63;;;;;;;15.22;100.00;100897.13;5008119;28;20029;-67
2021/08/10 03:50:46;;;;;;;0.82;0.80;;;;;;;15.16;100.00;100895.94;5030295;28;20789;-66
2021/08/10 03:53:12;;;;;;;0.63;0.52;;;;;;;15.19;100.00;100890.53;5023836;28;20045;-66
2021/08/10 03:55:39;;;;;;;0.70;0.65;;;;;;;15.01;100.00;100888.88;5003992;28;20040;-66
2021/08/10 03:58:07;;;;;;;1.55;0.90;;;;;;;14.98;100.00;100884.97;5008245;28;20029;-67
2021/08/10 04:00:38;;;;;;;0.55;0.55;;;;;;;14.95;100.00;100879.53;5014381;28;20037;-67
2021/08/10 04:03:09;;;;;;;0.80;0.60;;;;;;;15.06;100.00;100878.44;5012174;28;20490;-67
2021/08/10 04:05:39;;;;;;;0.60;0.60;;;;;;;14.99;100.00;100875.72;5014036;28;20049;-67
2021/08/10 04:08:13;;;;;;;0.63;0.60;;;;;;;14.93;100.00;100890.00;5009160;28;20030;-66
2021/08/10 04:10:43;;;;;;;1.88;0.60;;;;;;;15.07;100.00;100887.38;5013106;28;20033;-67
2021/08/10 04:13:10;;;;;;;1.20;0.75;;;;;;;15.14;100.00;100895.53;5008840;28;20033;-66
2021/08/10 04:15:40;;;;;;;0.63;0.60;;;;;;;15.38;100.00;100894.91;5012772;28;20079;-66
2021/08/10 04:18:07;;;;;;;1.13;0.80;;;;;;;15.47;100.00;100903.50;4997377;28;20029;-66
2021/08/10 04:20:32;;;;;;;0.88;0.50;;;;;;;15.34;100.00;100896.81;5031486;28;20037;-67
2021/08/10 04:22:59;;;;;;;0.90;0.60;;;;;;;15.34;100.00;100905.75;5008334;28;20033;-66
2021/08/10 04:25:24;;;;;;;0.50;0.50;;;;;;;15.39;100.00;100912.72;5012864;28;20036;-67
2021/08/10 04:27:50;;;;;;;0.85;0.70;;;;;;;15.47;100.00;100908.94;5030808;28;20068;-66
2021/08/10 04:30:18;;;;;;;1.40;0.70;;;;;;;15.58;100.00;100914.41;5011089;28;20065;-67
2021/08/10 04:32:44;;;;;;;1.20;0.68;;;;;;;15.57;100.00;100921.00;5010060;28;20040;-66
2021/08/10 04:35:10;;;;;;;0.52;0.47;;;;;;;15.48;100.00;100920.56;5013164;28;20493;-67
2021/08/10 04:37:37;;;;;;;0.60;0.60;;;;;;;15.54;100.00;100905.47;5025165;28;20041;-66
2021/08/10 04:40:04;;;;;;;1.30;0.60;;;;;;;15.52;100.00;100902.38;5005837;28;20037;-67
2021/08/10 04:42:48;;;;;;;0.57;0.52;;;;;;;15.58;100.00;100907.03;5012697;28;20087;-67
2021/08/10 04:45:13;;;;;;;0.70;0.70;;;;;;;15.57;100.00;100907.41;5029656;28;20525;-67
2021/08/10 04:47:39;;;;;;;0.70;0.60;;;;;;;15.58;100.00;100907.03;5031109;28;20025;-67
2021/08/10 04:50:06;;;;;;;0.63;0.47;;;;;;;15.56;100.00;100909.38;5012737;28;20040;-67
2021/08/10 04:52:31;;;;;;;0.60;0.50;;;;;;;15.57;100.00;100904.69;5028827;28;20026;-67
2021/08/10 04:54:57;;;;;;;1.08;0.75;;;;;;;15.60;100.00;100912.09;5028544;28;20038;-66
2021/08/10 04:57:24;;;;;;;0.80;0.57;;;;;;;15.73;100.00;100918.72;5013216;28;20415;-66
2021/08/10 04:59:51;;;;;;;1.63;1.10;;;;;;;15.67;100.00;100907.47;5012954;28;20404;-67
2021/08/10 05:02:18;;;;;;;0.43;0.40;;;;;;;15.66;100.00;100911.31;5006770;28;20021;-67
2021/08/10 05:04:44;;;;;;;0.82;0.60;;;;;;;15.60;100.00;100914.81;5012289;28;20442;-67
2021/08/10 05:07:09;;;;;;;0.80;0.43;;;;;;;15.59;100.00;100914.03;5012334;28;20053;-66
2021/08/10 05:09:35;;;;;;;1.27;0.55;;;;;;;15.51;100.00;100907.00;5009684;28;20030;-66
2021/08/10 05:12:01;;;;;;;0.50;0.40;;;;;;;15.65;100.00;100909.78;5000101;28;20421;-67
2021/08/10 05:14:26;;;;;;;0.65;0.57;;;;;;;15.77;100.00;100914.09;5009260;28;20161;-67
2021/08/10 05:16:54;;;;;;;0.68;0.45;;;;;;;15.79;100.00;100915.28;5013247;28;20068;-66
2021/08/10 05:19:20;;;;;;;0.73;0.57;;;;;;;15.62;100.00;100913.25;5009081;28;20045;-66
2021/08/10 05:21:45;;;;;;;1.13;0.75;;;;;;;15.79;100.00;100911.78;5003340;28;20033;-67
2021/08/10 05:24:11;;;;;;;1.05;0.60;;;;;;;15.66;100.00;100908.63;5006912;28;20045;-67
2021/08/10 05:26:36;;;;;;;1.25;0.95;;;;;;;15.76;100.00;100913.31;5024704;28;20044;-66
2021/08/10 05:29:02;;;;;;;0.65;0.60;;;;;;;15.83;100.00;100907.13;5012181;28;20028;-67
2021/08/10 05:31:28;;;;;;;0.90;0.68;;;;;;;15.85;100.00;100911.00;4988789;28;20052;-67
2021/08/10 05:33:53;;;;;;;0.85;0.50;;;;;;;15.80;100.00;100908.66;4984216;28;20034;-66
2021/08/10 05:36:22;;;;;;;0.77;0.47;;;;;;;15.87;100.00;100913.34;5012575;28;20033;-67
2021/08/10 05:38:54;;;;;;;0.77;0.60;;;;;;;15.84;100.00;100909.47;5007948;28;20034;-66
2021/08/10 05:41:21;;;;;;;0.60;0.47;;;;;;;15.78;100.00;100916.41;4977181;28;20026;-67
2021/08/10 05:43:48;;;;;;;1.48;0.77;;;;;;;15.76;100.00;100913.31;5015758;28;20037;-67
2021/08/10 05:46:13;;;;;;;1.48;0.77;;;;;;;15.59;100.00;100903.16;4995620;28;20426;-66
2021/08/10 05:48:39;;;;;;;0.50;0.50;;;;;;;15.69;100.00;100899.72;5012039;28;20026;-66
2021/08/10 05:51:07;;;;;;;0.50;0.40;;;;;;;15.65;100.00;100912.50;4994941;28;20060;-67
2021/08/10 05:53:35;;;;;;;1.20;0.75;;;;;;;15.52;100.00;100919.44;5023395;28;20033;-67
2021/08/10 05:56:02;;;;;;;0.82;0.63;;;;;;;15.74;100.00;100918.34;4999705;28;20056;-67
2021/08/10 05:58:31;;;;;;;0.57;0.57;;;;;;;15.89;100.00;100917.22;5014039;28;20099;-66
2021/08/10 06:00:58;;;;;;;0.50;0.50;;;;;;;15.96;100.00;100911.03;5010395;28;20036;-66
2021/08/10 06:03:24;;;;;;;1.23;0.65;;;;;;;15.92;100.00;100913.75;5010254;28;20498;-66
2021/08/10 06:05:49;;;;;;;1.83;0.60;;;;;;;16.09;100.00;100904.06;5000087;28;20029;-67
2021/08/10 06:08:15;;;;;;;1.33;0.52;;;;;;;16.13;100.00;100897.50;5000418;28;20037;-67
2021/08/10 06:10:46;;;;;;;1.10;1.00;;;;;;;16.04;100.00;100880.81;4995489;28;20911;-67
2021/08/10 06:13:11;;;;;;;1.05;0.68;;;;;;;16.07;100.00;100882.72;5001367;28;20100;-67
2021/08/10 06:15:38;;;;;;;1.40;0.40;;;;;;;16.11;100.00;100885.44;5014702;28;20022;-67
2021/08/10 06:18:04;;;;;;;0.95;0.52;;;;;;;15.91;100.00;100890.44;5015933;28;20025;-67
2021/08/10 06:20:30;;;;;;;0.65;0.60;;;;;;;15.94;100.00;100892.41;5003366;28;20517;-67
2021/08/10 06:22:56;;;;;;;1.33;0.95;;;;;;;16.19;100.00;100887.03;5012658;28;20402;-68
2021/08/10 06:25:22;;;;;;;1.20;0.80;;;;;;;16.15;100.00;100897.88;5015246;28;20049;-67
2021/08/10 06:27:47;;;;;;;0.82;0.52;;;;;;;16.26;100.00;100898.66;5032035;28;20056;-67
2021/08/10 06:30:14;;;;;;;1.73;0.88;;;;;;;16.20;100.00;100905.66;5009075;28;20124;-67
2021/08/10 06:32:40;;;;;;;0.75;0.60;;;;;;;16.19;100.00;100887.81;5016545;28;20087;-67
2021/08/10 06:35:08;;;;;;;1.35;0.70;;;;;;;16.14;100.00;100882.72;4999069;28;20034;-67
2021/08/10 06:37:34;;;;;;;0.52;0.52;;;;;;;15.85;100.00;100892.00;5014757;28;20065;-67
2021/08/10 06:40:00;;;;;;;1.55;0.50;;;;;;;15.96;100.00;100881.16;5016016;28;20071;-67
2021/08/10 06:42:25;;;;;;;1.95;0.60;;;;;;;15.98;100.00;100876.91;5014203;28;20563;-67
2021/08/10 06:45:03;;;;;;;2.22;0.80;;;;;;;15.87;100.00;100867.94;5013734;28;20052;-67
2021/08/10 06:47:29;;;;;;;0.88;0.68;;;;;;;16.01;100.00;100880.78;5014233;28;20034;-68
2021/08/10 06:49:55;;;;;;;1.70;0.70;;;;;;;16.05;100.00;100876.13;5014827;28;20397;-67
2021/08/10 06:52:20;;;;;;;0.98;0.50;;;;;;;15.93;100.00;100876.50;5010808;28;20029;-66
2021/08/10 06:54:47;;;;;;;1.05;0.70;;;;;;;16.02;100.00;100877.69;5014378;28;20037;-67
2021/08/10 06:57:13;;;;;;;1.98;0.88;;;;;;;16.10;100.00;100878.47;5014273;28;20040;-67
2021/08/10 06:59:40;;;;;;;1.15;0.60;;;;;;;16.21;100.00;100877.31;5010655;28;20116;-67
2021/08/10 07:02:09;;;;;;;0.60;0.50;;;;;;;16.16;100.00;100887.81;5019903;28;20175;-67
2021/08/10 07:04:36;;;;;;;1.27;0.60;;;;;;;16.14;100.00;100881.97;5032393;28;20496;-66
2021/08/10 07:07:05;;;;;;;1.48;0.98;;;;;;;16.09;100.00;100894.00;5010941;28;20040;-67
2021/08/10 07:09:34;;;;;;;1.05;0.70;;;;;;;16.16;100.00;100894.00;5016947;28;20048;-66
2021/08/10 07:12:02;;;;;;;0.70;0.60;;;;;;;16.12;100.00;100898.66;5010957;28;20032;-66
2021/08/10 07:14:31;;;;;;;0.88;0.57;;;;;;;16.05;100.00;100898.66;5017299;28;20128;-66
2021/08/10 07:17:00;;;;;;;1.17;0.57;;;;;;;16.19;100.00;100903.31;5018548;28;20029;-68
2021/08/10 07:19:28;;;;;;;1.15;0.80;;;;;;;16.34;100.00;100896.72;5016008;28;20069;-67
2021/08/10 07:21:54;;;;;;;0.50;0.40;;;;;;;16.39;100.00;100907.25;4995367;28;20033;-66
2021/08/10 07:24:22;;;;;;;1.23;0.77;;;;;;;16.34;100.00;100898.69;5013403;28;20073;-67
2021/08/10 07:26:49;;;;;;;0.57;0.50;;;;;;;16.15;100.00;100903.31;5029985;28;20111;-66
2021/08/10 07:29:15;;;;;;;1.20;0.82;;;;;;;16.31;100.00;100900.25;5012612;28;20112;-67
2021/08/10 07:31:41;;;;;;;1.02;0.57;;;;;;;16.22;100.00;100908.75;5012538;28;20030;-67
2021/08/10 07:34:14;;;;;;;0.90;0.68;;;;;;;16.30;100.00;100903.34;5011370;28;20548;-67
2021/08/10 07:36:42;;;;;;;0.90;0.70;;;;;;;16.51;100.00;100906.13;5010465;28;20094;-67
2021/08/10 07:39:08;;;;;;;0.70;0.60;;;;;;;16.45;100.00;100908.41;5014397;28;20033;-67
2021/08/10 07:41:33;;;;;;;1.15;0.77;;;;;;;16.58;100.00;100908.81;4995468;28;20038;-67
2021/08/10 07:44:04;;;;;;;0.60;0.52;;;;;;;16.70;100.00;100911.94;5013084;28;20025;-67
2021/08/10 07:46:35;;;;;;;0.68;0.60;;;;;;;16.77;100.00;100911.13;5009692;28;20037;-67
2021/08/10 07:49:01;;;;;;;0.75;0.52;;;;;;;16.87;100.00;100902.19;5009879;28;20509;-68
2021/08/10 07:51:27;;;;;;;0.93;0.55;;;;;;;16.88;100.00;100901.00;5013143;28;20084;-67
2021/08/10 07:53:53;;;;;;;1.10;0.75;;;;;;;16.99;100.00;100912.69;5007846;28;20041;-67
2021/08/10 07:56:18;;;;;;;1.23;0.68;;;;;;;17.15;100.00;100896.69;5011887;28;20025;-67
2021/08/10 07:58:45;;;;;;;1.60;0.85;;;;;;;17.13;100.00;100893.56;5013841;28;20067;-66
2021/08/10 08:01:11;;;;;;;0.88;0.50;;;;;;;17.18;100.00;100898.63;5006553;28;20045;-68
2021/08/10 08:03:37;;;;;;;0.80;0.57;;;;;;;17.32;100.00;100909.50;4995469;28;20116;-66
2021/08/10 08:06:03;;;;;;;1.10;0.60;;;;;;;17.22;100.00;100915.75;5013307;28;20129;-67
2021/08/10 08:08:30;;;;;;;0.90;0.63;;;;;;;17.32;100.00;100920.38;5010362;28;20037;-67
2021/08/10 08:10:57;;;;;;;1.20;0.80;;;;;;;17.37;100.00;100914.53;5012536;28;20025;-67
2021/08/10 08:13:28;;;;;;;1.23;0.70;;;;;;;17.33;100.00;100921.94;5011816;28;20029;-66
2021/08/10 08:15:57;;;;;;;0.90;0.70;;;;;;;17.27;100.00;100900.94;5007620;28;20079;-67
2021/08/10 08:18:23;;;;;;;1.23;0.63;;;;;;;17.30;100.00;100921.94;5010668;28;20025;-67
2021/08/10 08:20:50;;;;;;;0.98;0.70;;;;;;;17.13;100.00;100926.25;5016356;28;20028;-67
2021/08/10 08:23:19;;;;;;;1.10;0.80;;;;;;;16.91;100.00;100927.47;5021367;28;20040;-67
2021/08/10 08:25:46;;;;;;;0.70;0.38;;;;;;;16.94;100.00;100919.28;5013136;28;20029;-67
2021/08/10 08:28:13;;;;;;;1.88;0.75;;;;;;;16.94;100.00;100913.84;5010332;28;20120;-67
2021/08/10 08:30:40;;;;;;;1.10;0.80;;;;;;;17.24;100.00;100912.63;5012455;28;20029;-67
2021/08/10 08:33:07;;;;;;;1.30;0.90;;;;;;;17.39;100.00;100909.47;5012220;28;20076;-67
2021/08/10 08:35:34;;;;;;;2.00;0.80;;;;;;;17.49;100.00;100919.56;5012497;28;20049;-66
2021/08/10 08:37:59;;;;;;;1.13;0.77;;;;;;;17.67;100.00;100914.06;5033045;28;20021;-67
2021/08/10 08:40:25;;;;;;;1.10;0.80;;;;;;;17.71;100.00;100914.81;5030358;28;20560;-67
2021/08/10 08:42:51;;;;;;;1.25;0.60;;;;;;;17.78;100.00;100917.50;5024661;28;20041;-67
2021/08/10 08:45:17;;;;;;;0.68;0.52;;;;;;;17.82;100.00;100916.31;5005472;28;20056;-68
2021/08/10 08:47:50;;;;;;;1.15;0.75;;;;;;;17.71;100.00;100921.03;5013425;28;20470;-68
2021/08/10 08:50:17;;;;;;;2.15;1.55;;;;;;;17.54;100.00;100921.09;5007432;28;20158;-67
2021/08/10 08:52:48;;;;;;;1.10;0.70;;;;;;;17.68;100.00;100919.09;5001484;28;20026;-67
2021/08/10 08:55:15;;;;;;;0.82;0.73;;;;;;;17.74;100.00;100919.47;5008959;28;20033;-66
2021/08/10 08:57:42;;;;;;;1.35;0.98;;;;;;;17.77;100.00;100922.16;5029554;28;20139;-67
2021/08/10 09:00:10;;;;;;;1.20;0.63;;;;;;;17.69;100.00;100915.19;5025637;28;20039;-67
2021/08/10 09:02:36;;;;;;;1.30;1.10;;;;;;;17.67;100.00;100914.81;5012073;28;20524;-68
2021/08/10 09:05:05;;;;;;;1.25;0.75;;;;;;;17.73;100.00;100909.75;5012854;28;20464;-68
2021/08/10 09:07:31;;;;;;;1.80;0.70;;;;;;;17.82;100.00;100919.06;5012671;28;20408;-66
2021/08/10 09:10:08;;;;;;;1.08;0.77;;;;;;;17.84;100.00;100908.53;5016111;28;20498;-68
2021/08/10 09:12:45;;;;;;;2.58;1.20;;;;;;;18.14;100.00;100901.75;5033904;28;20072;-68
2021/08/10 09:15:29;;;;;;;1.33;0.93;;;;;;;18.34;100.00;100889.13;5001498;28;20125;-66
2021/08/10 09:18:07;;;;;;;1.27;0.80;;;;;;;18.83;100.00;100896.91;5012134;28;20090;-68
2021/08/10 09:20:32;;;;;;;1.17;1.00;;;;;;;18.69;100.00;100888.84;4990461;28;20083;-68
2021/08/10 09:22:58;;;;;;;1.77;0.90;;;;;;;18.78;100.00;100900.06;4994216;28;20042;-68
2021/08/10 09:25:35;;;;;;;1.08;0.93;;;;;;;18.90;100.00;100885.94;5012522;28;20029;-68
2021/08/10 09:28:06;;;;;;;0.80;0.63;;;;;;;18.97;100.00;100887.81;5012623;28;20576;-69
2021/08/10 09:30:34;;;;;;;1.48;0.85;;;;;;;18.93;100.00;100890.56;5011395;22;20028;-66
2021/08/10 09:33:04;;;;;;;1.05;0.85;;;;;;;18.92;100.00;100886.28;5046229;28;20032;-69
2021/08/10 09:35:37;;;;;;;1.20;0.68;;;;;;;19.00;100.00;100876.84;5043718;28;20025;-68
2021/08/10 09:38:12;;;;;;;0.65;0.65;;;;;;;19.06;100.00;100875.22;5044283;28;20044;-67
2021/08/10 09:40:38;;;;;;;1.52;0.90;;;;;;;19.22;100.00;100863.75;5048097;28;20147;-68
2021/08/10 09:43:32;;;;;;;1.42;0.70;;;;;;;19.56;100.00;100861.78;5048188;28;20037;-69
2021/08/10 09:46:25;;;;;;;0.88;0.63;;;;;;;19.63;100.00;100867.94;5035351;28;20032;-69
2021/08/10 09:48:54;;;;;;;0.70;0.60;;;;;;;19.77;100.00;100861.50;5048289;28;20439;-68
2021/08/10 09:51:24;;;;;;;1.05;0.60;;;;;;;19.95;100.00;100858.50;5042077;28;20033;-67
2021/08/10 09:54:11;;;;;;;0.60;0.50;;;;;;;20.03;100.00;100857.22;5045869;28;20044;-68
2021/08/10 09:57:03;;;;;;;0.70;0.60;;;;;;;20.46;100.00;100863.59;5049019;28;20460;-68
2021/08/10 09:59:44;;;;;;;1.17;0.60;;;;;;;20.69;100.00;100849.91;5048315;28;20052;-68
2021/08/10 10:02:21;;;;;;;0.77;0.55;;;;;;;21.02;100.00;100851.63;5049459;28;20040;-68
2021/08/10 10:04:51;;;;;;;0.88;0.55;;;;;;;21.15;100.00;100855.31;5049395;28;20101;-68
2021/08/10 10:07:18;;;;;;;0.88;0.65;;;;;;;21.40;100.00;100847.38;5046306;28;20138;-68
2021/08/10 10:09:52;;;;;;;0.88;0.60;;;;;;;21.57;99.14;100845.44;5030366;28;20112;-68
2021/08/10 10:12:24;;;;;;;0.70;0.50;;;;;;;21.66;97.73;100844.84;5043667;28;20396;-68
2021/08/10 10:14:57;;;;;;;1.33;0.50;;;;;;;21.83;95.94;100846.47;5057884;28;20033;-68
2021/08/10 10:17:23;;;;;;;0.50;0.32;;;;;;;21.75;95.12;100847.78;5052465;28;20098;-68
2021/08/10 10:19:49;;;;;;;0.88;0.50;;;;;;;21.88;93.40;100841.25;5052349;28;20096;-64
2021/08/10 10:22:22;;;;;;;0.98;0.60;;;;;;;22.06;93.47;100847.09;5051372;28;20050;-65
2021/08/10 10:24:51;;;;;;;0.57;0.57;;;;;;;22.00;92.45;100851.53;5051886;28;20035;-66
2021/08/10 10:27:17;;;;;;;0.75;0.75;;;;;;;21.88;90.96;100851.44;5053545;28;20025;-66
2021/08/10 10:29:47;;;;;;;0.77;0.57;;;;;;;21.46;90.79;100847.63;5036912;28;20128;-65
2021/08/10 10:32:13;;;;;;;0.60;0.60;;;;;;;21.22;90.47;100835.97;5044589;28;20029;-67
2021/08/10 10:34:41;;;;;;;0.60;0.60;;;;;;;20.93;91.51;100848.66;5031624;28;20033;-66
2021/08/10 10:37:07;;;;;;;0.50;0.47;;;;;;;20.78;92.52;100836.44;5043957;28;20056;-67
2021/08/10 10:39:35;;;;;;;1.05;0.82;;;;;;;20.95;93.27;100835.31;5038440;28;20033;-68
2021/08/10 10:42:03;;;;;;;0.88;0.57;;;;;;;21.54;94.10;100821.63;5033420;28;20497;-67
2021/08/10 10:44:43;;;;;;;0.98;0.60;;;;;;;21.51;91.23;100834.19;5037442;28;20045;-66
2021/08/10 10:47:24;;;;;;;2.28;0.90;;;;;;;21.89;89.04;100826.31;5032126;28;20537;-66
2021/08/10 10:49:56;;;;;;;0.70;0.70;;;;;;;22.02;89.43;100824.44;5047661;28;20095;-66
2021/08/10 10:52:32;;;;;;;2.33;0.60;;;;;;;22.25;87.54;100820.75;5051659;28;20033;-67
2021/08/10 10:55:00;;;;;;;0.95;0.80;;;;;;;22.42;86.95;100825.03;5047845;28;20040;-67
2021/08/10 10:57:35;;;;;;;0.63;0.63;;;;;;;22.29;84.92;100816.72;5039491;28;20095;-68
2021/08/10 11:00:03;;;;;;;1.35;0.60;;;;;;;22.22;83.39;100825.13;5051648;28;20041;-66
2021/08/10 11:02:29;;;;;;;0.65;0.55;;;;;;;22.33;83.79;100827.63;5046127;28;20037;-67
2021/08/10 11:05:28;;;;;;;0.45;0.45;;;;;;;22.24;82.47;100830.94;5037864;28;20037;-66
2021/08/10 11:07:55;;;;;;;0.55;0.55;;;;;;;21.97;82.58;100833.19;5039780;28;20041;-66
2021/08/10 11:10:35;;;;;;;1.27;0.70;;;;;;;21.78;83.50;100835.94;5039359;28;20037;-68
2021/08/10 11:13:04;;;;;;;0.90;0.80;;;;;;;21.81;85.16;100826.91;5047300;28;20091;-66
2021/08/10 11:15:55;;;;;;;1.45;0.80;;;;;;;21.84;86.59;100835.06;5042423;28;20038;-66
2021/08/10 11:18:22;;;;;;;0.70;0.70;;;;;;;21.99;87.86;100838.25;5033522;28;20095;-67
2021/08/10 11:21:09;;;;;;;0.77;0.75;;;;;;;21.94;85.33;100827.78;5035969;28;20033;-67
2021/08/10 11:23:37;;;;;;;0.98;0.88;;;;;;;21.88;83.17;100834.97;5032562;28;20112;-67
2021/08/10 11:26:02;;;;;;;1.70;0.88;;;;;;;21.55;82.33;100823.16;5036730;28;20022;-67
2021/08/10 11:28:29;;;;;;;0.75;0.75;;;;;;;21.65;82.22;100826.84;5042622;28;20037;-67